Hlavní strana
METAR-TAF:

METAR-TAF

Letiště :

Siteki, Svazijsko

zeměpisná šířka: 26-28-20S, zeměpisná délka: 31-56-34E, výška: 677 m

Aktuální stav počasí

Zpráva byla vytvořena před 42 minutami, v 19:00 UTC
Bezvětří
Teplota 14°C
Vlhkost vzduchu 82%
Tlak 1023 hPa

METAR: FDST 051900Z AUTO 00000KT //// // ////// 14/11 Q1023

Čas: 21:42 (19:42 UTC)


TAF: chybějící

Stav a předpovědi počasí z více než 4 000 letišť (zprávy METAR a TAF).

Červené a žluté tečky na mapě představují dostupné meteorologické stanice.

Když kurzor umístíte na tečku, zobrazí se název stanice.

Pak kliknutím zobrazíte stav a předpověď počasí.

Chcete-li změnit mapu, kliknutím na zelené tlačítko se znaménkem +mapu přiblížíte, kliknutím na zelené tlačítko se znaménkem – mapu oddálíte a kliknutím na zelené šipky přejdete na sousední mapy.


METAR-TAF: